createdAt,value
2023-11-03T00:00:30.702Z,21.76
2023-11-03T00:05:22.603Z,21.75
2023-11-03T00:10:15.402Z,21.75
2023-11-03T00:15:11.118Z,21.75
2023-11-03T00:20:03.129Z,21.77
2023-11-03T00:24:54.997Z,21.75
2023-11-03T00:29:46.978Z,21.77
2023-11-03T00:34:39.269Z,21.75
2023-11-03T00:39:30.956Z,21.76
2023-11-03T00:44:26.133Z,21.74
2023-11-03T00:49:19.967Z,21.75
2023-11-03T00:54:11.813Z,21.75
2023-11-03T00:59:08.020Z,21.76
2023-11-03T01:03:59.876Z,21.74
2023-11-03T01:08:55.156Z,21.76
2023-11-03T01:13:46.917Z,21.75
2023-11-03T01:18:42.347Z,21.75
2023-11-03T01:23:34.296Z,21.69
2023-11-03T01:28:25.993Z,21.71
2023-11-03T01:33:17.757Z,21.72
2023-11-03T01:38:09.577Z,21.73
2023-11-03T01:43:01.315Z,21.75
2023-11-03T01:47:53.597Z,21.74
2023-11-03T01:52:48.141Z,21.74
2023-11-03T01:57:41.481Z,21.75
2023-11-03T02:02:34.645Z,21.71
2023-11-03T02:07:26.807Z,21.74
2023-11-03T02:12:18.609Z,21.74
2023-11-03T02:17:10.516Z,21.64
2023-11-03T02:22:02.392Z,21.72
2023-11-03T02:26:54.144Z,21.74
2023-11-03T02:31:46.793Z,21.75
2023-11-03T02:36:38.526Z,21.74
2023-11-03T02:41:30.410Z,21.75
2023-11-03T02:46:24.806Z,21.71
2023-11-03T02:51:17.093Z,21.72
2023-11-03T02:56:08.940Z,21.72
2023-11-03T03:01:00.747Z,21.70
2023-11-03T03:05:52.501Z,21.72
2023-11-03T03:10:44.174Z,21.70
2023-11-03T03:15:35.895Z,21.72
2023-11-03T03:20:27.671Z,21.72
2023-11-03T03:25:20.093Z,21.72
2023-11-03T03:30:12.708Z,21.71
2023-11-03T03:35:04.806Z,21.72
2023-11-03T03:39:56.491Z,21.73
2023-11-03T03:44:48.333Z,21.72
2023-11-03T03:49:40.056Z,21.71
2023-11-03T03:54:31.772Z,21.71
2023-11-03T03:59:23.499Z,21.70
2023-11-03T04:04:15.354Z,21.71
2023-11-03T04:09:08.096Z,21.63
2023-11-03T04:13:59.802Z,21.70
2023-11-03T04:18:51.661Z,21.69
2023-11-03T04:23:43.383Z,21.69
2023-11-03T04:28:36.457Z,21.69
2023-11-03T04:33:28.166Z,21.69
2023-11-03T04:38:19.887Z,21.69
2023-11-03T04:43:11.627Z,21.69
2023-11-03T04:48:03.632Z,21.70
2023-11-03T04:52:55.302Z,21.69
2023-11-03T04:57:47.039Z,21.68
2023-11-03T05:02:39.231Z,21.68
2023-11-03T05:07:33.226Z,21.68
2023-11-03T05:12:24.928Z,21.66
2023-11-03T05:17:16.651Z,21.67
2023-11-03T05:22:08.483Z,21.65
2023-11-03T05:27:00.224Z,21.63
2023-11-03T05:31:51.963Z,21.62
2023-11-03T05:36:45.039Z,21.61
2023-11-03T05:41:37.703Z,21.62
2023-11-03T05:46:29.892Z,21.59
2023-11-03T05:51:22.753Z,21.62
2023-11-03T05:56:14.480Z,21.60
2023-11-03T06:01:07.788Z,21.61
2023-11-03T06:05:59.711Z,21.60
2023-11-03T06:10:51.885Z,21.60
2023-11-03T06:15:44.419Z,21.59
2023-11-03T06:20:36.212Z,21.57
2023-11-03T06:25:28.132Z,21.60
2023-11-03T06:30:19.939Z,21.58
2023-11-03T06:35:11.624Z,21.60
2023-11-03T06:40:04.074Z,21.61
2023-11-03T06:44:55.945Z,21.61
2023-11-03T06:49:47.911Z,21.60
2023-11-03T06:54:39.861Z,21.60
2023-11-03T06:59:31.574Z,21.62
2023-11-03T07:04:26.063Z,21.62
2023-11-03T07:09:18.137Z,21.61
2023-11-03T07:14:09.824Z,21.61
2023-11-03T07:19:01.596Z,21.59
2023-11-03T07:23:54.133Z,21.59
2023-11-03T07:28:46.789Z,21.59
2023-11-03T07:33:44.772Z,21.56
2023-11-03T07:38:36.911Z,21.57
2023-11-03T07:43:28.665Z,21.57
2023-11-03T07:48:20.589Z,21.56
2023-11-03T07:53:12.332Z,21.54
2023-11-03T07:58:06.935Z,21.55
2023-11-03T08:03:00.960Z,21.55
2023-11-03T08:07:54.397Z,21.55
2023-11-03T08:12:46.210Z,21.54
2023-11-03T08:17:38.220Z,21.56
2023-11-03T08:22:30.546Z,21.54
2023-11-03T08:27:22.302Z,21.50
2023-11-03T08:32:13.985Z,21.51
2023-11-03T08:37:05.804Z,21.53
2023-11-03T08:42:02.034Z,21.60
2023-11-03T08:46:55.077Z,21.56
2023-11-03T08:51:46.903Z,21.57
2023-11-03T08:56:40.363Z,21.57
2023-11-03T09:01:32.157Z,21.55
2023-11-03T09:06:23.984Z,21.60
2023-11-03T09:11:16.777Z,21.64
2023-11-03T09:16:09.615Z,21.64
2023-11-03T09:21:03.868Z,21.68
2023-11-03T09:25:55.812Z,21.68
2023-11-03T09:30:50.113Z,21.70
2023-11-03T09:35:41.961Z,21.74
2023-11-03T09:40:36.912Z,21.74
2023-11-03T09:45:30.731Z,21.74
2023-11-03T09:50:25.681Z,21.73
2023-11-03T09:55:23.074Z,21.78
2023-11-03T10:00:17.901Z,21.79
2023-11-03T10:05:15.608Z,21.80
2023-11-03T10:10:08.628Z,21.80
2023-11-03T10:15:02.211Z,21.81
2023-11-03T10:19:57.109Z,21.83
2023-11-03T10:24:49.035Z,21.84
2023-11-03T10:29:41.395Z,21.83
2023-11-03T10:34:33.827Z,21.84
2023-11-03T10:39:29.360Z,21.90
2023-11-03T10:44:27.355Z,21.91
2023-11-03T10:49:34.038Z,21.92
2023-11-03T10:54:31.501Z,21.93
2023-11-03T10:59:33.467Z,21.94
2023-11-03T11:05:22.134Z,21.97
2023-11-03T11:10:15.878Z,21.96
2023-11-03T11:15:11.722Z,21.99
2023-11-03T11:20:05.616Z,22.02
2023-11-03T11:25:02.737Z,22.00
2023-11-03T11:30:13.634Z,22.01
2023-11-03T11:35:11.789Z,22.04
2023-11-03T11:40:07.227Z,22.04
2023-11-03T11:45:00.625Z,22.06
2023-11-03T11:49:54.889Z,22.07
2023-11-03T11:54:47.982Z,22.08
2023-11-03T11:59:42.158Z,22.09
2023-11-03T12:04:34.037Z,22.11
2023-11-03T12:09:25.827Z,22.11
2023-11-03T12:14:17.832Z,22.02
2023-11-03T12:19:12.415Z,22.11
2023-11-03T12:24:05.545Z,22.11
2023-11-03T12:29:32.712Z,22.12
2023-11-03T12:34:26.774Z,22.01
2023-11-03T12:39:19.813Z,22.10
2023-11-03T12:44:11.862Z,22.11
2023-11-03T12:49:10.554Z,22.08
2023-11-03T12:54:04.262Z,22.10
2023-11-03T12:58:57.881Z,22.10
2023-11-03T13:03:49.735Z,22.10
2023-11-03T13:08:41.901Z,22.12
2023-11-03T13:13:33.697Z,22.13
2023-11-03T13:18:25.573Z,22.13
2023-11-03T13:23:18.025Z,22.12
2023-11-03T13:28:09.808Z,22.10
2023-11-03T13:33:02.022Z,22.15
2023-11-03T13:37:53.981Z,22.15
2023-11-03T13:42:45.864Z,22.14
2023-11-03T13:47:38.731Z,22.13
2023-11-03T13:52:31.254Z,22.15
2023-11-03T13:57:23.488Z,22.15
2023-11-03T14:02:15.508Z,22.15
2023-11-03T14:07:13.785Z,22.16
2023-11-03T14:12:06.095Z,22.15
2023-11-03T14:17:00.082Z,22.13
2023-11-03T14:21:51.925Z,22.11
2023-11-03T14:26:48.683Z,22.15
2023-11-03T14:31:42.491Z,22.14
2023-11-03T14:36:44.251Z,22.15
2023-11-03T14:41:41.732Z,22.10
2023-11-03T14:46:36.238Z,22.15
2023-11-03T14:51:28.059Z,22.16
2023-11-03T14:56:19.979Z,22.15
2023-11-03T15:01:16.805Z,22.16
2023-11-03T15:06:09.548Z,22.16
2023-11-03T15:11:01.250Z,22.16
2023-11-03T15:15:53.781Z,22.13
2023-11-03T15:20:45.724Z,22.18
2023-11-03T15:25:37.451Z,22.16
2023-11-03T15:30:29.685Z,22.16
2023-11-03T15:35:22.282Z,22.16
2023-11-03T15:40:18.921Z,22.18
2023-11-03T15:45:12.941Z,22.18
2023-11-03T15:50:05.495Z,22.19
2023-11-03T15:54:57.190Z,22.20
2023-11-03T15:59:50.200Z,22.18
2023-11-03T16:04:42.319Z,22.18
2023-11-03T16:09:35.091Z,22.16
2023-11-03T16:14:26.822Z,22.18
2023-11-03T16:19:18.657Z,22.21
2023-11-03T16:24:13.089Z,22.20
2023-11-03T16:29:05.637Z,22.21
2023-11-03T16:33:57.428Z,22.18
2023-11-03T16:38:54.498Z,22.23
2023-11-03T16:43:46.637Z,22.21
2023-11-03T16:48:41.093Z,22.24
2023-11-03T16:53:32.895Z,22.24
2023-11-03T16:58:24.683Z,22.23
2023-11-03T17:03:17.013Z,22.25
2023-11-03T17:08:10.804Z,22.25
2023-11-03T17:13:04.294Z,22.24
2023-11-03T17:17:56.882Z,22.27
2023-11-03T17:22:49.245Z,22.28
2023-11-03T17:27:41.208Z,22.28
2023-11-03T17:32:33.849Z,22.29
2023-11-03T17:37:27.701Z,22.29
2023-11-03T17:42:20.079Z,22.28
2023-11-03T17:47:12.528Z,22.28
2023-11-03T17:52:05.185Z,22.30
2023-11-03T17:56:58.144Z,22.33
2023-11-03T18:01:50.391Z,22.32
2023-11-03T18:06:42.852Z,22.32
2023-11-03T18:11:34.609Z,22.32
2023-11-03T18:16:27.022Z,22.35
2023-11-03T18:21:18.937Z,22.36
2023-11-03T18:26:11.113Z,22.37
2023-11-03T18:31:04.652Z,22.37
2023-11-03T18:35:56.425Z,22.39
2023-11-03T18:40:48.313Z,22.41
2023-11-03T18:45:40.171Z,22.40
2023-11-03T18:51:23.656Z,22.39
2023-11-03T19:07:14.476Z,22.40
2023-11-03T19:10:47.348Z,22.38
2023-11-03T19:15:39.275Z,22.43
2023-11-03T19:20:30.987Z,22.42
2023-11-03T19:25:24.032Z,22.41
2023-11-03T19:30:16.522Z,22.42
2023-11-03T19:35:10.498Z,22.40
2023-11-03T19:40:02.247Z,22.42
2023-11-03T19:44:54.171Z,22.42
2023-11-03T19:49:45.969Z,22.42
2023-11-03T19:54:37.880Z,22.41
2023-11-03T19:59:29.744Z,22.41
2023-11-03T20:04:26.568Z,22.41
2023-11-03T20:09:19.063Z,22.41
2023-11-03T20:14:11.201Z,22.40
2023-11-03T20:19:05.182Z,22.40
2023-11-03T20:23:57.801Z,22.43
2023-11-03T20:28:50.355Z,22.42
2023-11-03T20:33:42.715Z,22.40
2023-11-03T20:38:34.801Z,22.41
2023-11-03T20:43:28.090Z,22.43
2023-11-03T20:48:20.074Z,22.44
2023-11-03T20:53:12.470Z,22.44
2023-11-03T20:58:05.209Z,22.44
2023-11-03T21:02:57.140Z,22.45
2023-11-03T21:07:50.197Z,22.47
2023-11-03T21:12:43.649Z,22.47
2023-11-03T21:17:36.284Z,22.45
2023-11-03T21:22:28.128Z,22.46
2023-11-03T21:27:19.917Z,22.46
2023-11-03T21:32:11.845Z,22.46
2023-11-03T21:37:05.035Z,22.48
2023-11-03T21:41:57.069Z,22.48
2023-11-03T21:46:48.955Z,22.48
2023-11-03T21:51:42.499Z,22.49
2023-11-03T21:56:34.641Z,22.45
2023-11-03T22:01:26.837Z,22.46
2023-11-03T22:06:18.591Z,22.48
2023-11-03T22:11:10.424Z,22.45
2023-11-03T22:16:02.774Z,22.48
2023-11-03T22:20:54.834Z,22.46
2023-11-03T22:25:46.624Z,22.51
2023-11-03T22:30:39.816Z,22.50
2023-11-03T22:35:31.648Z,22.49
2023-11-03T22:40:23.572Z,22.48
2023-11-03T22:45:15.542Z,22.47
2023-11-03T22:50:07.650Z,22.47
2023-11-03T22:54:59.586Z,22.48
2023-11-03T22:59:52.371Z,22.47
2023-11-03T23:04:45.111Z,22.44
2023-11-03T23:09:39.870Z,22.43
2023-11-03T23:14:31.736Z,22.46
2023-11-03T23:19:23.647Z,22.45
2023-11-03T23:24:15.624Z,22.46
2023-11-03T23:29:09.248Z,22.46
2023-11-03T23:34:01.783Z,22.46
2023-11-03T23:38:55.208Z,22.44
2023-11-03T23:43:46.884Z,22.45
2023-11-03T23:48:38.756Z,22.46
2023-11-03T23:53:30.535Z,22.44
2023-11-03T23:58:22.493Z,22.45
